Time,TemperatureF,DewpointF,PressureIn,WindDirection,WindDirectionDegrees,WindSpeedMPH,WindSpeedGustMPH,Humidity,HourlyPrecipIn,Conditions,Clouds,dailyrainin,SolarRadiationWatts/m^2,SoftwareType,DateUTC
2013-01-21 06:29:00,14.7,-13.9,30.27,NNE,22,5.4,5.4,26,-99.99,,---,-99.99,0.00,VWS V14.01,2013-01-21 12:29:00,
2013-01-21 06:32:00,14.5,-14.1,30.27,NNE,22,5.6,5.6,26,-99.99,,---,-99.99,0.00,VWS V14.01,2013-01-21 12:32:00,
2013-01-21 06:34:00,14.5,-14.1,30.27,NNE,22,5.6,5.6,26,-99.99,,---,-99.99,0.00,VWS V14.01,2013-01-21 12:34:00,
2013-01-21 06:39:00,14.5,-14.1,30.27,NNE,22,7.8,8.5,26,-99.99,,---,-99.99,0.00,VWS V14.01,2013-01-21 12:39:00,
2013-01-21 06:44:00,14.5,-14.1,30.27,NNW,338,7.2,7.2,26,-99.99,,---,-99.99,0.00,VWS V14.01,2013-01-21 12:44:00,
2013-01-21 06:50:00,14.5,-14.1,30.27,NNW,338,4.7,4.7,26,-99.99,,---,-99.99,0.00,VWS V14.01,2013-01-21 12:50:00,
2013-01-21 06:56:00,14.5,-14.1,30.27,NNW,338,7.6,7.6,26,-99.99,,---,-99.99,0.00,VWS V14.01,2013-01-21 12:56:00,
2013-01-21 07:02:00,14.2,-14.4,30.27,NNW,338,11.0,11.0,26,-99.99,,---,-99.99,0.00,VWS V14.01,2013-01-21 13:02:00,
2013-01-21 07:08:00,14.0,-13.8,30.27,NNW,338,7.2,9.6,27,-99.99,,---,-99.99,0.00,VWS V14.01,2013-01-21 13:08:00,
2013-01-21 07:13:00,14.0,-13.8,30.27,NNE,22,7.2,8.5,27,-99.99,,---,-99.99,0.00,VWS V14.01,2013-01-21 13:13:00,
2013-01-21 07:19:00,13.8,-14.0,30.27,NNE,22,7.6,9.8,27,-99.99,,---,-99.99,0.00,VWS V14.01,2013-01-21 13:19:00,
2013-01-21 07:25:00,13.6,-14.1,30.27,North,0,10.3,12.1,27,-99.99,,---,-99.99,0.00,VWS V14.01,2013-01-21 13:25:00,
2013-01-21 07:31:00,13.6,-14.1,30.27,NNE,22,9.2,12.5,27,-99.99,,---,-99.99,0.00,VWS V14.01,2013-01-21 13:31:00,
2013-01-21 07:36:00,13.5,-14.3,30.24,NNE,22,7.8,8.7,27,-99.99,,---,-99.99,0.00,VWS V14.01,2013-01-21 13:36:00,
2013-01-21 07:42:00,13.5,-14.3,30.24,NNW,338,6.0,7.6,27,-99.99,,---,-99.99,0.00,VWS V14.01,2013-01-21 13:42:00,
2013-01-21 07:47:00,13.5,-14.3,30.24,NNW,338,6.3,10.3,27,-99.99,,---,-99.99,0.00,VWS V14.01,2013-01-21 13:47:00,
2013-01-21 07:52:00,13.3,-14.4,30.24,NNW,338,12.5,12.5,27,-99.99,,---,-99.99,0.00,VWS V14.01,2013-01-21 13:52:00,
2013-01-21 07:57:00,12.9,-14.8,30.24,NNW,338,16.8,16.8,27,-99.99,,---,-99.99,0.00,VWS V14.01,2013-01-21 13:57:00,
2013-01-21 08:02:00,12.7,-14.9,30.24,NNE,22,10.5,13.2,27,-99.99,,---,-99.99,0.00,VWS V14.01,2013-01-21 14:02:00,
2013-01-21 08:07:00,12.6,-15.1,30.27,NNW,338,10.1,10.7,27,-99.99,,---,-99.99,0.00,VWS V14.01,2013-01-21 14:07:00,
2013-01-21 08:13:00,12.6,-15.1,30.27,North,0,7.8,8.5,27,-99.99,,---,-99.99,0.00,VWS V14.01,2013-01-21 14:13:00,
2013-01-21 08:19:00,12.4,-15.2,30.27,NNW,338,11.0,12.5,27,-99.99,,---,-99.99,0.00,VWS V14.01,2013-01-21 14:19:00,
2013-01-21 08:24:00,12.4,-15.2,30.27,NNW,338,12.5,14.3,27,-99.99,,---,-99.99,0.00,VWS V14.01,2013-01-21 14:24:00,
2013-01-21 08:30:00,12.0,-15.5,30.27,NNW,338,12.5,13.2,27,-99.99,,---,-99.99,0.00,VWS V14.01,2013-01-21 14:30:00,
2013-01-21 08:36:00,12.0,-15.5,30.30,NNW,338,8.5,8.5,27,-99.99,,---,-99.99,0.00,VWS V14.01,2013-01-21 14:36:00,
2013-01-21 08:42:00,12.0,-15.5,30.30,NNE,22,10.3,10.3,27,-99.99,,---,-99.99,0.00,VWS V14.01,2013-01-21 14:42:00,
2013-01-21 08:47:00,11.8,-15.7,30.30,North,0,13.2,13.2,27,-99.99,,---,-99.99,0.00,VWS V14.01,2013-01-21 14:47:00,
2013-01-21 08:53:00,11.7,-15.9,30.33,NNW,338,10.1,10.1,27,-99.99,,---,-99.99,0.00,VWS V14.01,2013-01-21 14:53:00,
2013-01-21 08:58:00,11.7,-15.9,30.33,North,0,13.0,13.0,27,-99.99,,---,-99.99,0.00,VWS V14.01,2013-01-21 14:58:00,
2013-01-21 09:03:00,11.3,-16.2,30.33,NNW,338,11.9,11.9,27,-99.99,,---,-99.99,0.00,VWS V14.01,2013-01-21 15:03:00,
2013-01-21 09:08:00,11.3,-16.2,30.30,NNW,338,6.5,10.1,27,-99.99,,---,-99.99,0.00,VWS V14.01,2013-01-21 15:08:00,
2013-01-21 09:14:00,11.3,-16.2,30.30,NNE,22,9.8,12.5,27,-99.99,,---,-99.99,0.00,VWS V14.01,2013-01-21 15:14:00,
2013-01-21 09:19:00,11.3,-16.2,30.30,North,0,11.0,11.0,27,-99.99,,---,-99.99,0.00,VWS V14.01,2013-01-21 15:19:00,
2013-01-21 09:24:00,11.3,-16.2,30.33,NNW,338,6.0,6.0,27,-99.99,,---,-99.99,0.00,VWS V14.01,2013-01-21 15:24:00,
2013-01-21 09:30:00,11.3,-16.2,30.33,NNW,338,8.5,8.5,27,-99.99,,---,-99.99,0.00,VWS V14.01,2013-01-21 15:30:00,
2013-01-21 09:35:00,11.3,-16.2,30.33,NNW,338,5.8,5.8,27,-99.99,,---,-99.99,0.00,VWS V14.01,2013-01-21 15:35:00,
2013-01-21 09:41:00,11.5,-16.0,30.33,NNE,22,6.3,7.6,27,-99.99,,---,-99.99,0.00,VWS V14.01,2013-01-21 15:41:00,
2013-01-21 09:47:00,11.5,-16.0,30.33,NNW,338,11.0,11.2,27,-99.99,,---,-99.99,0.00,VWS V14.01,2013-01-21 15:47:00,
2013-01-21 09:52:00,11.5,-16.0,30.33,NNE,22,10.7,10.7,27,-99.99,,---,-99.99,0.00,VWS V14.01,2013-01-21 15:52:00,
2013-01-21 09:57:00,11.5,-16.0,30.33,NNW,338,11.9,15.4,27,-99.99,,---,-99.99,0.00,VWS V14.01,2013-01-21 15:57:00,
2013-01-21 10:03:00,11.8,-15.7,30.33,North,0,12.8,12.8,27,-99.99,,---,-99.99,0.00,VWS V14.01,2013-01-21 16:03:00,
2013-01-21 10:08:00,11.8,-15.7,30.33,NNW,338,10.3,10.3,27,-99.99,,---,-99.99,0.00,VWS V14.01,2013-01-21 16:08:00,
2013-01-21 10:14:00,12.0,-15.5,30.33,NW,315,8.5,8.5,27,-99.99,,---,-99.99,0.00,VWS V14.01,2013-01-21 16:14:00,
2013-01-21 10:20:00,12.0,-15.5,30.33,NNW,338,12.8,12.8,27,-99.99,,---,-99.99,0.00,VWS V14.01,2013-01-21 16:20:00,
2013-01-21 10:25:00,12.2,-15.4,30.33,North,0,10.3,10.3,27,-99.99,,---,-99.99,0.00,VWS V14.01,2013-01-21 16:25:00,
2013-01-21 10:31:00,12.2,-15.4,30.33,NNW,338,9.8,10.1,27,-99.99,,---,-99.99,0.00,VWS V14.01,2013-01-21 16:31:00,
2013-01-21 10:36:00,12.6,-15.1,30.36,North,0,7.4,7.4,27,-99.99,,---,-99.99,0.00,VWS V14.01,2013-01-21 16:36:00,
2013-01-21 10:41:00,12.7,-14.9,30.36,NNW,338,10.3,10.3,27,-99.99,,---,-99.99,0.00,VWS V14.01,2013-01-21 16:41:00,
2013-01-21 10:47:00,12.9,-14.8,30.36,NNW,338,15.2,15.2,27,-99.99,,---,-99.99,0.00,VWS V14.01,2013-01-21 16:47:00,
2013-01-21 10:53:00,12.9,-14.8,30.36,NNW,338,15.2,15.2,27,-99.99,,---,-99.99,0.00,VWS V14.01,2013-01-21 16:53:00,
2013-01-21 10:59:00,12.7,-14.9,30.36,NNW,338,13.0,13.0,27,-99.99,,---,-99.99,0.00,VWS V14.01,2013-01-21 16:59:00,
2013-01-21 11:04:00,12.6,-15.1,30.36,NNW,338,9.8,9.8,27,-99.99,,---,-99.99,0.00,VWS V14.01,2013-01-21 17:04:00,
2013-01-21 11:10:00,12.2,-15.4,30.36,NNE,22,11.9,11.9,27,-99.99,,---,-99.99,0.00,VWS V14.01,2013-01-21 17:10:00,
2013-01-21 11:16:00,12.0,-15.5,30.36,NNE,22,12.5,12.5,27,-99.99,,---,-99.99,0.00,VWS V14.01,2013-01-21 17:16:00,
2013-01-21 11:21:00,12.2,-15.4,30.36,NNW,338,10.5,10.5,27,-99.99,,---,-99.99,0.00,VWS V14.01,2013-01-21 17:21:00,
2013-01-21 11:26:00,12.4,-15.2,30.36,NNW,338,9.6,9.6,27,-99.99,,---,-99.99,0.00,VWS V14.01,2013-01-21 17:26:00,
2013-01-21 11:32:00,12.4,-15.2,30.36,NNE,22,7.6,8.7,27,-99.99,,---,-99.99,0.00,VWS V14.01,2013-01-21 17:32:00,
2013-01-21 11:38:00,12.4,-15.2,30.36,NNW,338,10.7,10.7,27,-99.99,,---,-99.99,0.00,VWS V14.01,2013-01-21 17:38:00,
2013-01-21 11:44:00,12.2,-15.4,30.36,NNW,338,6.0,10.5,27,-99.99,,---,-99.99,0.00,VWS V14.01,2013-01-21 17:44:00,
2013-01-21 11:50:00,12.2,-15.4,30.36,NNW,338,3.8,7.4,27,-99.99,,---,-99.99,0.00,VWS V14.01,2013-01-21 17:50:00,
2013-01-21 11:55:00,12.0,-15.5,30.33,NNW,338,10.7,10.7,27,-99.99,,---,-99.99,0.00,VWS V14.01,2013-01-21 17:55:00,
2013-01-21 12:00:00,11.8,-15.7,30.33,NNW,338,8.5,8.5,27,-99.99,,---,-99.99,0.00,VWS V14.01,2013-01-21 18:00:00,
2013-01-21 12:06:00,11.8,-15.7,30.33,NNW,338,8.7,8.7,27,-99.99,,---,-99.99,0.00,VWS V14.01,2013-01-21 18:06:00,
2013-01-21 12:11:00,11.8,-15.7,30.33,North,0,5.8,7.8,27,-99.99,,---,-99.99,0.00,VWS V14.01,2013-01-21 18:11:00,
2013-01-21 12:16:00,11.8,-15.7,30.33,NW,315,8.1,9.6,27,-99.99,,---,-99.99,0.00,VWS V14.01,2013-01-21 18:16:00,
2013-01-21 12:21:00,11.8,-15.7,30.33,North,0,5.4,5.4,27,-99.99,,---,-99.99,0.00,VWS V14.01,2013-01-21 18:21:00,
2013-01-21 12:27:00,11.8,-15.7,30.30,NW,315,6.3,8.7,27,-99.99,,---,-99.99,0.00,VWS V14.01,2013-01-21 18:27:00,
2013-01-21 12:33:00,11.8,-15.7,30.30,NNW,338,7.4,8.7,27,-99.99,,---,-99.99,0.00,VWS V14.01,2013-01-21 18:33:00,
2013-01-21 12:39:00,12.0,-15.5,30.30,NNW,338,7.6,8.1,27,-99.99,,---,-99.99,0.00,VWS V14.01,2013-01-21 18:39:00,
2013-01-21 12:45:00,11.8,-15.7,30.30,NNW,338,6.5,10.5,27,-99.99,,---,-99.99,0.00,VWS V14.01,2013-01-21 18:45:00,
2013-01-21 12:51:00,11.8,-15.7,30.33,NNE,22,7.6,7.6,27,-99.99,,---,-99.99,0.00,VWS V14.01,2013-01-21 18:51:00,
2013-01-21 12:57:00,12.0,-15.5,30.33,NNE,22,10.3,10.3,27,-99.99,,---,-99.99,0.00,VWS V14.01,2013-01-21 18:57:00,
2013-01-21 13:03:00,12.0,-15.5,30.33,NNW,338,7.6,10.3,27,-99.99,,---,-99.99,0.00,VWS V14.01,2013-01-21 19:03:00,
2013-01-21 13:09:00,11.7,-15.9,30.33,NNW,338,7.6,7.6,27,-99.99,,---,-99.99,0.00,VWS V14.01,2013-01-21 19:09:00,
2013-01-21 13:15:00,11.8,-15.7,30.33,North,0,11.0,11.0,27,-99.99,,---,-99.99,0.00,VWS V14.01,2013-01-21 19:15:00,
2013-01-21 13:20:00,11.8,-15.7,30.33,NW,315,6.0,7.6,27,-99.99,,---,-99.99,0.00,VWS V14.01,2013-01-21 19:20:00,
2013-01-21 13:26:00,11.8,-15.7,30.33,NNW,338,4.3,6.0,27,-99.99,,---,-99.99,0.00,VWS V14.01,2013-01-21 19:26:00,
2013-01-21 13:32:00,11.8,-15.7,30.33,NW,315,7.6,8.1,27,-99.99,,---,-99.99,0.00,VWS V14.01,2013-01-21 19:32:00,
2013-01-21 13:37:00,12.2,-15.4,30.33,NNW,338,7.4,7.4,27,-99.99,,---,-99.99,0.00,VWS V14.01,2013-01-21 19:37:00,
2013-01-21 13:42:00,12.0,-15.5,30.33,North,0,6.3,9.6,27,-99.99,,---,-99.99,0.00,VWS V14.01,2013-01-21 19:42:00,
2013-01-21 13:48:00,12.2,-15.4,30.33,NNW,338,4.3,4.3,27,-99.99,,---,-99.99,0.00,VWS V14.01,2013-01-21 19:48:00,
2013-01-21 13:54:00,12.6,-15.1,30.33,WNW,292,10.3,10.3,27,-99.99,,---,-99.99,0.00,VWS V14.01,2013-01-21 19:54:00,
2013-01-21 13:59:00,12.6,-15.1,30.33,NNW,338,4.7,4.7,27,-99.99,,---,-99.99,0.00,VWS V14.01,2013-01-21 19:59:00,
2013-01-21 14:05:00,12.6,-15.1,30.33,NW,315,6.5,6.5,27,-99.99,,---,-99.99,0.00,VWS V14.01,2013-01-21 20:05:00,
2013-01-21 14:11:00,12.7,-14.9,30.33,NNW,338,6.5,7.6,27,-99.99,,---,-99.99,0.00,VWS V14.01,2013-01-21 20:11:00,
2013-01-21 14:17:00,12.7,-14.9,30.33,WNW,292,7.8,7.8,27,-99.99,,---,-99.99,0.00,VWS V14.01,2013-01-21 20:17:00,
2013-01-21 14:23:00,13.1,-14.6,30.33,NNW,338,6.5,6.5,27,-99.99,,---,-99.99,0.00,VWS V14.01,2013-01-21 20:23:00,
2013-01-21 14:28:00,13.1,-14.6,30.33,WNW,292,10.1,10.1,27,-99.99,,---,-99.99,0.00,VWS V14.01,2013-01-21 20:28:00,
2013-01-21 14:34:00,13.1,-14.6,30.33,NW,315,8.1,8.1,27,-99.99,,---,-99.99,0.00,VWS V14.01,2013-01-21 20:34:00,
2013-01-21 14:39:00,12.9,-14.8,30.30,NNW,338,6.3,6.3,27,-99.99,,---,-99.99,0.00,VWS V14.01,2013-01-21 20:39:00,
2013-01-21 14:44:00,13.3,-14.4,30.30,WNW,292,5.4,6.3,27,-99.99,,---,-99.99,0.00,VWS V14.01,2013-01-21 20:44:00,
2013-01-21 14:50:00,13.3,-14.4,30.30,NW,315,5.6,5.6,27,-99.99,,---,-99.99,0.00,VWS V14.01,2013-01-21 20:50:00,
2013-01-21 14:56:00,13.1,-14.6,30.33,NNW,338,6.0,6.5,27,-99.99,,---,-99.99,0.00,VWS V14.01,2013-01-21 20:56:00,
2013-01-21 15:02:00,13.1,-14.6,30.33,NW,315,8.1,8.1,27,-99.99,,---,-99.99,0.00,VWS V14.01,2013-01-21 21:02:00,
2013-01-21 15:07:00,13.1,-14.6,30.30,NNW,338,5.8,7.6,27,-99.99,,---,-99.99,0.00,VWS V14.01,2013-01-21 21:07:00,
2013-01-21 15:12:00,13.1,-14.6,30.30,NW,315,7.4,7.4,27,-99.99,,---,-99.99,0.00,VWS V14.01,2013-01-21 21:12:00,
2013-01-21 15:17:00,12.7,-14.9,30.30,WNW,292,10.1,10.1,27,-99.99,,---,-99.99,0.00,VWS V14.01,2013-01-21 21:17:00,
2013-01-21 15:23:00,12.7,-14.9,30.30,WNW,292,5.8,5.8,27,-99.99,,---,-99.99,0.00,VWS V14.01,2013-01-21 21:23:00,
2013-01-21 15:29:00,12.7,-14.9,30.30,NW,315,5.8,5.8,27,-99.99,,---,-99.99,0.00,VWS V14.01,2013-01-21 21:29:00,
2013-01-21 15:34:00,12.9,-14.8,30.30,NNW,338,8.1,8.7,27,-99.99,,---,-99.99,0.00,VWS V14.01,2013-01-21 21:34:00,
2013-01-21 15:40:00,12.9,-14.8,30.30,WNW,292,6.7,6.7,27,-99.99,,---,-99.99,0.00,VWS V14.01,2013-01-21 21:40:00,
2013-01-21 15:46:00,12.9,-14.8,30.30,NNE,22,5.6,5.6,27,-99.99,,---,-99.99,0.00,VWS V14.01,2013-01-21 21:46:00,
2013-01-21 15:51:00,12.9,-14.8,30.30,North,0,7.4,7.6,27,-99.99,,---,-99.99,0.00,VWS V14.01,2013-01-21 21:51:00,
2013-01-21 15:56:00,13.3,-14.4,30.30,NNW,338,6.0,6.0,27,-99.99,,---,-99.99,0.00,VWS V14.01,2013-01-21 21:56:00,
2013-01-21 16:01:00,13.3,-14.4,30.30,NNW,338,5.6,5.6,27,-99.99,,---,-99.99,0.00,VWS V14.01,2013-01-21 22:01:00,
2013-01-21 16:07:00,13.1,-14.6,30.30,NNW,338,3.6,6.5,27,-99.99,,---,-99.99,0.00,VWS V14.01,2013-01-21 22:07:00,
2013-01-21 16:12:00,13.3,-14.4,30.30,NNW,338,8.1,8.1,27,-99.99,,---,-99.99,0.00,VWS V14.01,2013-01-21 22:12:00,
2013-01-21 16:18:00,13.3,-14.4,30.30,NW,315,4.0,6.0,27,-99.99,,---,-99.99,0.00,VWS V14.01,2013-01-21 22:18:00,
2013-01-21 16:24:00,12.9,-14.8,30.30,NNE,22,4.5,5.4,27,-99.99,,---,-99.99,0.00,VWS V14.01,2013-01-21 22:24:00,
2013-01-21 16:30:00,12.9,-14.8,30.30,NNE,22,6.3,6.3,27,-99.99,,---,-99.99,0.00,VWS V14.01,2013-01-21 22:30:00,
2013-01-21 16:35:00,12.9,-14.8,30.30,NNW,338,8.5,8.5,27,-99.99,,---,-99.99,0.00,VWS V14.01,2013-01-21 22:35:00,
2013-01-21 16:40:00,12.9,-14.8,30.30,NNW,338,8.5,8.5,27,-99.99,,---,-99.99,0.00,VWS V14.01,2013-01-21 22:40:00,
2013-01-21 16:46:00,0.0,0.0,30.30,North,0,0.0,0.0,0,-99.99,,---,-99.99,0.00,VWS V14.01,2013-01-21 22:46:00,
2013-01-21 16:52:00,12.7,-14.9,30.27,NNW,338,6.0,6.0,27,-99.99,,---,-99.99,0.00,VWS V14.01,2013-01-21 22:52:00,
2013-01-21 16:58:00,12.7,-14.9,30.27,NNW,338,6.0,6.0,27,-99.99,,---,-99.99,0.00,VWS V14.01,2013-01-21 22:58:00,
2013-01-21 17:03:00,12.6,-15.1,30.27,NW,315,3.4,3.4,27,-99.99,,---,-99.99,0.00,VWS V14.01,2013-01-21 23:03:00,
2013-01-21 17:08:00,12.2,-15.4,30.27,WNW,292,5.6,5.6,27,-99.99,,---,-99.99,0.00,VWS V14.01,2013-01-21 23:08:00,
2013-01-21 17:14:00,12.2,-15.4,30.27,WNW,292,4.3,4.3,27,-99.99,,---,-99.99,0.00,VWS V14.01,2013-01-21 23:14:00,
2013-01-21 17:20:00,12.0,-15.5,30.27,NNW,338,2.9,4.5,27,-99.99,,---,-99.99,0.00,VWS V14.01,2013-01-21 23:20:00,
2013-01-21 17:26:00,12.0,-15.5,30.27,NW,315,5.8,5.8,27,-99.99,,---,-99.99,0.00,VWS V14.01,2013-01-21 23:26:00,
2013-01-21 17:32:00,12.0,-15.5,30.27,NW,315,3.8,4.5,27,-99.99,,---,-99.99,0.00,VWS V14.01,2013-01-21 23:32:00,
2013-01-21 17:38:00,12.0,-15.5,30.27,NNW,338,4.3,4.3,27,-99.99,,---,-99.99,0.00,VWS V14.01,2013-01-21 23:38:00,
2013-01-21 17:43:00,12.0,-15.5,30.27,NNW,338,3.6,3.6,27,-99.99,,---,-99.99,0.00,VWS V14.01,2013-01-21 23:43:00,
2013-01-21 17:49:00,12.0,-15.5,30.27,NNW,338,3.4,3.8,27,-99.99,,---,-99.99,0.00,VWS V14.01,2013-01-21 23:49:00,
2013-01-21 17:54:00,12.2,-15.4,30.27,NW,315,3.6,4.3,27,-99.99,,---,-99.99,0.00,VWS V14.01,2013-01-21 23:54:00,
2013-01-21 18:00:00,12.2,-15.4,30.27,NNE,22,2.2,2.2,27,-99.99,,---,-99.99,0.00,VWS V14.01,2013-01-22 00:00:00,
2013-01-21 18:06:00,12.2,-15.4,30.27,North,0,3.1,3.1,27,-99.99,,---,-99.99,0.00,VWS V14.01,2013-01-22 00:06:00,
2013-01-21 18:11:00,12.2,-15.4,30.27,NW,315,4.9,4.9,27,-99.99,,---,-99.99,0.00,VWS V14.01,2013-01-22 00:11:00,
2013-01-21 18:16:00,12.4,-15.2,30.27,NW,315,2.5,2.5,27,-99.99,,---,-99.99,0.00,VWS V14.01,2013-01-22 00:16:00,
2013-01-21 18:21:00,12.4,-15.2,30.27,NNW,338,2.5,2.5,27,-99.99,,---,-99.99,0.00,VWS V14.01,2013-01-22 00:21:00,
2013-01-21 18:27:00,12.6,-15.1,30.27,NNE,22,3.6,3.6,27,-99.99,,---,-99.99,0.00,VWS V14.01,2013-01-22 00:27:00,
2013-01-21 18:32:00,12.6,-15.1,30.27,NNW,338,4.3,4.3,27,-99.99,,---,-99.99,0.00,VWS V14.01,2013-01-22 00:32:00,
2013-01-21 18:37:00,12.6,-15.1,30.27,NNW,338,5.6,5.6,27,-99.99,,---,-99.99,0.00,VWS V14.01,2013-01-22 00:37:00,
2013-01-21 18:43:00,12.6,-15.1,30.27,NW,315,3.8,3.8,27,-99.99,,---,-99.99,0.00,VWS V14.01,2013-01-22 00:43:00,
2013-01-21 18:49:00,12.6,-15.1,30.27,NNW,338,4.3,4.7,27,-99.99,,---,-99.99,0.00,VWS V14.01,2013-01-22 00:49:00,
2013-01-21 18:55:00,12.6,-15.1,30.27,NNW,338,6.0,6.0,27,-99.99,,---,-99.99,0.00,VWS V14.01,2013-01-22 00:55:00,
2013-01-21 19:01:00,12.7,-14.9,30.27,NNW,338,4.9,4.9,27,-99.99,,---,-99.99,0.00,VWS V14.01,2013-01-22 01:01:00,
2013-01-21 19:06:00,12.7,-14.9,30.27,NNW,338,7.6,7.6,27,-99.99,,---,-99.99,0.00,VWS V14.01,2013-01-22 01:06:00,
2013-01-21 19:12:00,12.7,-14.9,30.27,NNW,338,2.7,5.4,27,-99.99,,---,-99.99,0.00,VWS V14.01,2013-01-22 01:12:00,
2013-01-21 19:17:00,12.7,-14.9,30.27,NNW,338,3.6,5.6,27,-99.99,,---,-99.99,0.00,VWS V14.01,2013-01-22 01:17:00,
2013-01-21 19:22:00,12.7,-14.9,30.27,NNW,338,5.8,5.8,27,-99.99,,---,-99.99,0.00,VWS V14.01,2013-01-22 01:22:00,
2013-01-21 19:28:00,12.7,-14.9,30.27,NW,315,4.0,5.6,27,-99.99,,---,-99.99,0.00,VWS V14.01,2013-01-22 01:28:00,
2013-01-21 19:33:00,12.7,-14.9,30.27,NNW,338,3.1,3.1,27,-99.99,,---,-99.99,0.00,VWS V14.01,2013-01-22 01:33:00,
2013-01-21 19:39:00,12.7,-14.9,30.27,NNW,338,2.7,3.8,27,-99.99,,---,-99.99,0.00,VWS V14.01,2013-01-22 01:39:00,
2013-01-21 19:45:00,12.7,-14.9,30.27,NNW,338,4.5,4.5,27,-99.99,,---,-99.99,0.00,VWS V14.01,2013-01-22 01:45:00,
2013-01-21 19:50:00,12.7,-14.9,30.27,NNE,22,4.0,4.0,27,-99.99,,---,-99.99,0.00,VWS V14.01,2013-01-22 01:50:00,
2013-01-21 19:55:00,12.7,-14.9,30.27,North,0,4.0,5.4,27,-99.99,,---,-99.99,0.00,VWS V14.01,2013-01-22 01:55:00,
2013-01-21 20:02:00,12.6,-15.1,30.27,NNW,338,4.3,4.3,27,-99.99,,---,-99.99,0.00,VWS V14.01,2013-01-22 02:02:00,
2013-01-21 20:08:00,12.6,-15.1,30.27,NNE,22,4.7,4.7,27,-99.99,,---,-99.99,0.00,VWS V14.01,2013-01-22 02:08:00,
2013-01-21 20:14:00,12.6,-15.1,30.27,NNW,338,4.5,4.5,27,-99.99,,---,-99.99,0.00,VWS V14.01,2013-01-22 02:14:00,
2013-01-21 20:20:00,12.6,-15.1,30.27,North,0,3.6,3.6,27,-99.99,,---,-99.99,0.00,VWS V14.01,2013-01-22 02:20:00,
2013-01-21 20:25:00,12.6,-15.1,30.27,NNW,338,3.1,3.1,27,-99.99,,---,-99.99,0.00,VWS V14.01,2013-01-22 02:25:00,
2013-01-21 20:30:00,12.6,-15.1,30.24,NNW,338,4.0,4.0,27,-99.99,,---,-99.99,0.00,VWS V14.01,2013-01-22 02:30:00,
2013-01-21 20:36:00,12.6,-15.1,30.24,NNW,338,3.4,6.5,27,-99.99,,---,-99.99,0.00,VWS V14.01,2013-01-22 02:36:00,
2013-01-21 20:43:00,12.6,-15.1,30.27,NNW,338,4.7,4.7,27,-99.99,,---,-99.99,0.00,VWS V14.01,2013-01-22 02:43:00,
2013-01-21 20:49:00,12.4,-15.2,30.27,North,0,6.5,6.5,27,-99.99,,---,-99.99,0.00,VWS V14.01,2013-01-22 02:49:00,
2013-01-21 20:54:00,12.2,-15.4,30.27,NNW,338,6.0,6.5,27,-99.99,,---,-99.99,0.00,VWS V14.01,2013-01-22 02:54:00,
2013-01-21 20:59:00,12.2,-15.4,30.27,NNW,338,21.0,21.0,27,-99.99,,---,-99.99,0.00,VWS V14.01,2013-01-22 02:59:00,
2013-01-21 21:04:00,12.2,-15.4,30.27,North,0,5.6,5.6,27,-99.99,,---,-99.99,0.00,VWS V14.01,2013-01-22 03:04:00,
2013-01-21 21:10:00,12.2,-15.4,30.24,NNW,338,5.6,5.6,27,-99.99,,---,-99.99,0.00,VWS V14.01,2013-01-22 03:10:00,
2013-01-21 21:16:00,12.2,-15.4,30.24,North,0,3.8,3.8,27,-99.99,,---,-99.99,0.00,VWS V14.01,2013-01-22 03:16:00,
2013-01-21 21:21:00,12.2,-15.4,30.27,NNE,22,5.8,6.0,27,-99.99,,---,-99.99,0.00,VWS V14.01,2013-01-22 03:21:00,
2013-01-21 21:26:00,12.2,-15.4,30.27,NNE,22,3.8,3.8,27,-99.99,,---,-99.99,0.00,VWS V14.01,2013-01-22 03:26:00,